createdAt,value
2018-09-03T00:00:50.394Z,100.0
2018-09-03T00:02:50.538Z,100.0
2018-09-03T00:04:49.775Z,100.0
2018-09-03T00:06:49.949Z,100.0
2018-09-03T00:08:50.007Z,100.0
2018-09-03T00:10:49.964Z,100.0
2018-09-03T00:12:50.090Z,100.0
2018-09-03T00:14:50.095Z,100.0
2018-09-03T00:16:50.381Z,100.0
2018-09-03T00:18:50.340Z,100.0
2018-09-03T00:20:50.357Z,100.0
2018-09-03T00:22:50.362Z,100.0
2018-09-03T00:24:50.316Z,100.0
2018-09-03T00:26:50.430Z,100.0
2018-09-03T00:28:50.416Z,100.0
2018-09-03T00:30:50.456Z,100.0
2018-09-03T00:32:50.430Z,100.0
2018-09-03T00:34:50.650Z,100.0
2018-09-03T00:36:49.948Z,100.0
2018-09-03T00:38:50.736Z,100.0
2018-09-03T00:40:50.684Z,100.0
2018-09-03T00:42:49.856Z,100.0
2018-09-03T00:44:50.112Z,100.0
2018-09-03T00:46:50.219Z,100.0
2018-09-03T00:48:50.127Z,100.0
2018-09-03T00:50:50.185Z,100.0
2018-09-03T00:52:50.177Z,100.0
2018-09-03T00:54:50.373Z,100.0
2018-09-03T00:56:50.667Z,100.0
2018-09-03T00:58:50.672Z,100.0
2018-09-03T01:00:49.779Z,100.0
2018-09-03T01:02:49.808Z,100.0
2018-09-03T01:04:50.352Z,100.0
2018-09-03T01:06:50.466Z,100.0
2018-09-03T01:08:50.437Z,100.0
2018-09-03T01:10:50.450Z,100.0
2018-09-03T01:12:50.451Z,100.0
2018-09-03T01:14:50.517Z,100.0
2018-09-03T01:16:50.720Z,100.0
2018-09-03T01:18:50.646Z,100.0
2018-09-03T01:20:50.735Z,100.0
2018-09-03T01:22:50.769Z,100.0
2018-09-03T01:24:50.787Z,100.0
2018-09-03T01:26:50.037Z,100.0
2018-09-03T01:28:50.202Z,100.0
2018-09-03T01:30:50.111Z,100.0
2018-09-03T01:32:50.152Z,100.0
2018-09-03T01:34:50.438Z,100.0
2018-09-03T01:36:50.635Z,100.0
2018-09-03T01:38:50.683Z,100.0
2018-09-03T01:40:50.655Z,100.0
2018-09-03T01:42:50.792Z,100.0
2018-09-03T01:44:49.810Z,100.0
2018-09-03T01:46:50.047Z,100.0
2018-09-03T01:48:50.103Z,100.0
2018-09-03T01:50:50.099Z,100.0
2018-09-03T01:52:50.061Z,100.0
2018-09-03T01:54:50.102Z,100.0
2018-09-03T01:56:50.281Z,100.0
2018-09-03T01:58:50.231Z,100.0
2018-09-03T02:00:50.233Z,100.0
2018-09-03T02:02:50.389Z,100.0
2018-09-03T02:04:50.609Z,100.0
2018-09-03T02:06:49.834Z,100.0
2018-09-03T02:08:49.901Z,100.0
2018-09-03T02:10:49.987Z,100.0
2018-09-03T02:12:50.047Z,100.0
2018-09-03T02:14:50.006Z,100.0
2018-09-03T02:16:50.182Z,100.0
2018-09-03T02:18:50.190Z,100.0
2018-09-03T02:20:50.177Z,100.0
2018-09-03T02:22:50.291Z,100.0
2018-09-03T02:24:50.272Z,100.0
2018-09-03T02:26:50.414Z,100.0
2018-09-03T02:28:50.424Z,100.0
2018-09-03T02:30:50.417Z,100.0
2018-09-03T02:32:50.382Z,100.0
2018-09-03T02:34:50.585Z,100.0
2018-09-03T02:36:49.830Z,100.0
2018-09-03T02:38:49.925Z,100.0
2018-09-03T02:40:49.900Z,100.0
2018-09-03T02:42:49.897Z,100.0
2018-09-03T02:44:50.049Z,100.0
2018-09-03T02:46:50.246Z,100.0
2018-09-03T02:48:50.232Z,100.0
2018-09-03T02:50:50.198Z,100.0
2018-09-03T02:52:50.249Z,100.0
2018-09-03T02:54:50.248Z,100.0
2018-09-03T02:56:50.478Z,100.0
2018-09-03T02:58:50.492Z,100.0
2018-09-03T03:00:50.546Z,100.0
2018-09-03T03:02:50.484Z,100.0
2018-09-03T03:04:49.838Z,100.0
2018-09-03T03:06:50.133Z,100.0
2018-09-03T03:08:50.047Z,100.0
2018-09-03T03:10:50.023Z,100.0
2018-09-03T03:12:50.025Z,100.0
2018-09-03T03:14:50.026Z,100.0
2018-09-03T03:16:50.210Z,100.0
2018-09-03T03:18:50.229Z,100.0
2018-09-03T03:20:50.257Z,100.0
2018-09-03T03:22:50.220Z,100.0
2018-09-03T03:24:50.257Z,100.0
2018-09-03T03:26:50.550Z,100.0
2018-09-03T03:28:50.602Z,100.0
2018-09-03T03:30:50.643Z,100.0
2018-09-03T03:32:50.618Z,100.0
2018-09-03T03:34:50.144Z,100.0
2018-09-03T03:36:50.337Z,100.0
2018-09-03T03:38:50.274Z,100.0
2018-09-03T03:40:50.315Z,100.0
2018-09-03T03:42:50.391Z,100.0
2018-09-03T03:44:50.390Z,100.0
2018-09-03T03:46:50.563Z,100.0
2018-09-03T03:48:50.700Z,100.0
2018-09-03T03:50:49.798Z,100.0
2018-09-03T03:52:49.829Z,100.0
2018-09-03T03:54:49.862Z,100.0
2018-09-03T03:56:50.179Z,100.0
2018-09-03T03:58:50.158Z,100.0
2018-09-03T04:00:50.118Z,100.0
2018-09-03T04:02:50.205Z,100.0
2018-09-03T04:04:50.605Z,100.0
2018-09-03T04:06:49.881Z,100.0
2018-09-03T04:08:49.921Z,100.0
2018-09-03T04:10:49.927Z,100.0
2018-09-03T04:12:49.987Z,100.0
2018-09-03T04:14:50.060Z,100.0
2018-09-03T04:16:50.271Z,100.0
2018-09-03T04:18:50.262Z,100.0
2018-09-03T04:20:50.235Z,100.0
2018-09-03T04:22:50.536Z,100.0
2018-09-03T04:24:50.479Z,100.0
2018-09-03T04:26:50.153Z,100.0
2018-09-03T04:28:50.705Z,100.0
2018-09-03T04:30:49.792Z,100.0
2018-09-03T04:32:49.852Z,100.0
2018-09-03T04:34:50.104Z,100.0
2018-09-03T04:36:50.337Z,100.0
2018-09-03T04:38:50.969Z,100.0
2018-09-03T04:40:50.047Z,100.0
2018-09-03T04:42:50.021Z,100.0
2018-09-03T04:44:50.027Z,100.0
2018-09-03T04:46:50.167Z,100.0
2018-09-03T04:48:50.184Z,100.0
2018-09-03T04:50:50.171Z,100.0
2018-09-03T04:52:50.206Z,100.0
2018-09-03T04:54:50.227Z,100.0
2018-09-03T04:56:50.402Z,100.0
2018-09-03T04:58:50.313Z,100.0
2018-09-03T05:00:50.298Z,100.0
2018-09-03T05:02:50.375Z,100.0
2018-09-03T05:04:50.644Z,100.0
2018-09-03T05:06:49.807Z,100.0
2018-09-03T05:08:49.816Z,100.0
2018-09-03T05:10:49.820Z,100.0
2018-09-03T05:12:49.944Z,100.0
2018-09-03T05:14:50.057Z,100.0
2018-09-03T05:16:50.204Z,100.0
2018-09-03T05:18:50.393Z,100.0
2018-09-03T05:20:50.318Z,100.0
2018-09-03T05:22:50.412Z,100.0
2018-09-03T05:24:50.593Z,100.0
2018-09-03T05:26:50.774Z,100.0
2018-09-03T05:28:50.760Z,100.0
2018-09-03T05:30:49.838Z,100.0
2018-09-03T05:32:50.079Z,100.0
2018-09-03T05:34:50.380Z,100.0
2018-09-03T05:36:50.310Z,100.0
2018-09-03T05:38:50.350Z,100.0
2018-09-03T05:40:50.428Z,100.0
2018-09-03T05:42:50.368Z,100.0
2018-09-03T05:44:50.510Z,100.0
2018-09-03T05:46:49.779Z,100.0
2018-09-03T05:48:49.800Z,100.0
2018-09-03T05:50:49.810Z,100.0
2018-09-03T05:52:49.815Z,100.0
2018-09-03T05:54:49.845Z,100.0
2018-09-03T05:56:49.938Z,100.0
2018-09-03T05:58:49.968Z,100.0
2018-09-03T06:00:49.903Z,100.0
2018-09-03T06:02:49.910Z,100.0
2018-09-03T06:04:50.780Z,100.0
2018-09-03T06:06:49.917Z,100.0
2018-09-03T06:08:50.015Z,100.0
2018-09-03T06:10:50.049Z,100.0
2018-09-03T06:12:50.159Z,100.0
2018-09-03T06:14:50.153Z,100.0
2018-09-03T06:16:50.382Z,100.0
2018-09-03T06:18:50.376Z,100.0
2018-09-03T06:20:50.417Z,100.0
2018-09-03T06:22:50.379Z,100.0
2018-09-03T06:24:50.390Z,100.0
2018-09-03T06:26:50.692Z,100.0
2018-09-03T06:28:50.603Z,100.0
2018-09-03T06:30:50.652Z,100.0
2018-09-03T06:32:50.213Z,100.0
2018-09-03T06:34:49.830Z,100.0
2018-09-03T06:36:49.975Z,100.0
2018-09-03T06:38:49.975Z,100.0
2018-09-03T06:40:50.192Z,100.0
2018-09-03T06:42:50.217Z,100.0
2018-09-03T06:44:50.226Z,100.0
2018-09-03T06:46:50.408Z,100.0
2018-09-03T06:48:50.472Z,100.0
2018-09-03T06:50:50.526Z,100.0
2018-09-03T06:52:51.012Z,100.0
2018-09-03T06:54:49.992Z,100.0
2018-09-03T06:56:50.216Z,100.0
2018-09-03T06:58:50.153Z,100.0
2018-09-03T07:00:50.167Z,100.0
2018-09-03T07:02:50.179Z,100.0
2018-09-03T07:04:50.521Z,100.0
2018-09-03T07:06:51.248Z,100.0
2018-09-03T07:08:50.289Z,100.0
2018-09-03T07:10:50.297Z,100.0
2018-09-03T07:12:50.325Z,100.0
2018-09-03T07:14:50.347Z,100.0
2018-09-03T07:16:50.441Z,100.0
2018-09-03T07:18:50.992Z,98.9
2018-09-03T07:20:50.085Z,98.9
2018-09-03T07:22:50.058Z,98.9
2018-09-03T07:24:50.056Z,99.1
2018-09-03T07:26:50.191Z,100.0
2018-09-03T07:28:50.596Z,98.0
2018-09-03T07:30:50.747Z,99.4
2018-09-03T07:32:50.701Z,99.9
2018-09-03T07:34:50.207Z,98.7
2018-09-03T07:36:50.413Z,98.6
2018-09-03T07:38:50.382Z,97.4
2018-09-03T07:40:50.501Z,98.3
2018-09-03T07:42:50.473Z,97.4
2018-09-03T07:44:50.483Z,96.0
2018-09-03T07:46:50.649Z,96.4
2018-09-03T07:48:50.688Z,96.6
2018-09-03T07:50:50.894Z,96.3
2018-09-03T07:52:49.937Z,95.8
2018-09-03T07:54:49.986Z,95.0
2018-09-03T07:56:50.257Z,95.5
2018-09-03T07:58:50.208Z,96.5
2018-09-03T08:00:50.262Z,95.1
2018-09-03T08:02:50.395Z,95.0
2018-09-03T08:04:50.653Z,95.0
2018-09-03T08:06:50.018Z,93.1
2018-09-03T08:08:50.024Z,92.8
2018-09-03T08:10:50.200Z,92.3
2018-09-03T08:12:50.441Z,92.9
2018-09-03T08:14:50.397Z,91.5
2018-09-03T08:16:50.623Z,93.2
2018-09-03T08:18:50.579Z,92.4
2018-09-03T08:20:50.687Z,91.2
2018-09-03T08:22:50.769Z,91.2
2018-09-03T08:24:50.727Z,89.2
2018-09-03T08:26:49.933Z,89.3
2018-09-03T08:28:49.971Z,89.3
2018-09-03T08:30:50.239Z,89.4
2018-09-03T08:32:50.225Z,90.1
2018-09-03T08:34:50.546Z,91.3
2018-09-03T08:36:50.730Z,90.9
2018-09-03T08:38:49.968Z,90.9
2018-09-03T08:40:50.133Z,92.0
2018-09-03T08:42:50.153Z,92.4
2018-09-03T08:44:50.555Z,92.6
2018-09-03T08:46:50.102Z,93.6
2018-09-03T08:48:50.055Z,92.7
2018-09-03T08:50:50.110Z,92.5
2018-09-03T08:52:50.114Z,93.5
2018-09-03T08:54:50.090Z,93.7
2018-09-03T08:56:50.858Z,93.0
2018-09-03T08:58:49.880Z,91.7
2018-09-03T09:00:49.978Z,91.3
2018-09-03T09:02:49.950Z,90.9
2018-09-03T09:04:50.495Z,90.9
2018-09-03T09:06:50.611Z,92.0
2018-09-03T09:08:50.796Z,90.5
2018-09-03T09:10:49.856Z,90.4
2018-09-03T09:12:49.892Z,92.0
2018-09-03T09:14:49.905Z,90.6
2018-09-03T09:16:50.349Z,92.7
2018-09-03T09:18:50.581Z,89.9
2018-09-03T09:20:50.539Z,90.2
2018-09-03T09:22:50.634Z,89.5
2018-09-03T09:24:50.527Z,90.9
2018-09-03T09:26:50.707Z,89.1
2018-09-03T09:28:50.779Z,89.4
2018-09-03T09:30:49.804Z,90.5
2018-09-03T09:32:49.905Z,88.9
2018-09-03T09:34:50.418Z,89.1
2018-09-03T09:36:51.204Z,89.3
2018-09-03T09:38:50.266Z,90.4
2018-09-03T09:40:50.270Z,89.7
2018-09-03T09:42:50.464Z,89.7
2018-09-03T09:44:50.464Z,90.0
2018-09-03T09:46:50.641Z,89.3
2018-09-03T09:48:49.819Z,89.3
2018-09-03T09:50:49.977Z,89.6
2018-09-03T09:52:50.081Z,89.3
2018-09-03T09:54:50.365Z,89.1
2018-09-03T09:56:50.500Z,88.6
2018-09-03T09:58:50.475Z,87.6
2018-09-03T10:00:50.602Z,88.0
2018-09-03T10:02:50.512Z,88.9
2018-09-03T10:04:49.941Z,88.2
2018-09-03T10:06:50.193Z,89.7
2018-09-03T10:08:50.330Z,89.6
2018-09-03T10:10:50.313Z,90.2
2018-09-03T10:12:50.483Z,90.0
2018-09-03T10:14:50.489Z,90.0
2018-09-03T10:16:50.729Z,93.2
2018-09-03T10:18:49.782Z,92.8
2018-09-03T10:20:50.103Z,92.9
2018-09-03T10:22:50.076Z,95.1
2018-09-03T10:24:50.045Z,94.7
2018-09-03T10:26:50.237Z,95.9
2018-09-03T10:28:50.174Z,95.3
2018-09-03T10:30:50.161Z,96.1
2018-09-03T10:32:50.259Z,96.5
2018-09-03T10:34:50.589Z,96.4
2018-09-03T10:36:50.763Z,96.7
2018-09-03T10:38:50.721Z,97.2
2018-09-03T10:40:49.806Z,96.4
2018-09-03T10:42:49.785Z,96.6
2018-09-03T10:44:50.748Z,96.7
2018-09-03T10:46:50.190Z,96.7
2018-09-03T10:48:50.373Z,97.0
2018-09-03T10:50:50.327Z,98.4
2018-09-03T10:52:50.377Z,97.6
2018-09-03T10:54:50.341Z,97.9
2018-09-03T10:56:50.643Z,97.7
2018-09-03T10:58:50.703Z,97.7
2018-09-03T11:00:50.782Z,98.3
2018-09-03T11:02:49.825Z,98.3
2018-09-03T11:04:50.344Z,98.2
2018-09-03T11:06:50.469Z,97.7
2018-09-03T11:08:50.485Z,97.8
2018-09-03T11:10:50.459Z,97.4
2018-09-03T11:12:50.502Z,96.4
2018-09-03T11:14:50.726Z,95.1
2018-09-03T11:16:49.896Z,95.4
2018-09-03T11:18:49.920Z,94.0
2018-09-03T11:20:49.893Z,92.3
2018-09-03T11:22:49.947Z,90.0
2018-09-03T11:24:49.981Z,89.9
2018-09-03T11:26:50.394Z,89.3
2018-09-03T11:28:50.915Z,90.5
2018-09-03T11:30:49.900Z,88.3
2018-09-03T11:32:50.004Z,85.9
2018-09-03T11:34:50.245Z,85.8
2018-09-03T11:36:50.317Z,86.1
2018-09-03T11:38:50.271Z,86.7
2018-09-03T11:40:50.575Z,86.4
2018-09-03T11:42:50.627Z,85.8
2018-09-03T11:44:49.778Z,86.2
2018-09-03T11:46:50.036Z,85.6
2018-09-03T11:48:50.163Z,85.2
2018-09-03T11:50:50.174Z,86.4
2018-09-03T11:52:50.294Z,84.9
2018-09-03T11:54:50.266Z,84.1
2018-09-03T11:56:50.402Z,84.3
2018-09-03T11:58:50.554Z,82.6
2018-09-03T12:00:50.567Z,82.9
2018-09-03T12:02:50.575Z,81.4
2018-09-03T12:04:50.139Z,82.3
2018-09-03T12:06:50.270Z,81.7
2018-09-03T12:08:50.225Z,82.5
2018-09-03T12:10:50.287Z,81.8
2018-09-03T12:12:50.218Z,81.8
2018-09-03T12:14:50.172Z,79.1
2018-09-03T12:16:50.252Z,79.9
2018-09-03T12:18:50.313Z,79.9
2018-09-03T12:20:50.419Z,77.9
2018-09-03T12:22:50.424Z,77.9
2018-09-03T12:24:50.416Z,80.5
2018-09-03T12:26:50.656Z,80.9
2018-09-03T12:28:50.622Z,82.9
2018-09-03T12:30:50.618Z,80.6
2018-09-03T12:32:50.600Z,82.1
2018-09-03T12:34:50.029Z,80.7
2018-09-03T12:36:50.322Z,81.5
2018-09-03T12:38:50.300Z,81.8
2018-09-03T12:40:50.336Z,83.6
2018-09-03T12:42:50.575Z,82.6
2018-09-03T12:44:50.651Z,80.6
2018-09-03T12:46:49.848Z,81.2
2018-09-03T12:48:49.978Z,80.9
2018-09-03T12:50:49.948Z,79.6
2018-09-03T12:52:49.951Z,75.9
2018-09-03T12:54:49.940Z,79.2
2018-09-03T12:56:50.131Z,79.0
2018-09-03T12:58:50.561Z,78.9
2018-09-03T13:00:50.070Z,80.4
2018-09-03T13:02:50.580Z,82.0
2018-09-03T13:04:50.017Z,83.6
2018-09-03T13:06:50.256Z,83.7
2018-09-03T13:08:50.227Z,84.7
2018-09-03T13:10:50.194Z,83.5
2018-09-03T13:12:50.711Z,83.1
2018-09-03T13:14:50.657Z,82.6
2018-09-03T13:16:49.923Z,81.9
2018-09-03T13:18:50.530Z,83.6
2018-09-03T13:20:50.507Z,82.2
2018-09-03T13:22:50.462Z,82.2
2018-09-03T13:24:50.433Z,80.3
2018-09-03T13:26:50.658Z,80.1
2018-09-03T13:28:50.689Z,79.4
2018-09-03T13:30:51.176Z,80.9
2018-09-03T13:32:50.290Z,78.9
2018-09-03T13:34:50.522Z,78.1
2018-09-03T13:36:49.865Z,78.1
2018-09-03T13:38:49.852Z,78.0
2018-09-03T13:40:49.878Z,77.0
2018-09-03T13:42:49.802Z,74.8
2018-09-03T13:44:50.778Z,75.6
2018-09-03T13:46:49.955Z,75.0
2018-09-03T13:48:49.912Z,71
2018-09-03T13:50:49.939Z,71
2018-09-03T13:52:50.104Z,71
2018-09-03T13:54:50.521Z,72
2018-09-03T13:56:51.086Z,71
2018-09-03T13:58:50.092Z,71
2018-09-03T14:00:50.104Z,71
2018-09-03T14:02:50.188Z,71
2018-09-03T14:04:50.781Z,71
2018-09-03T14:06:49.952Z,71
2018-09-03T14:08:49.912Z,71
2018-09-03T14:10:49.952Z,71
2018-09-03T14:12:49.942Z,70
2018-09-03T14:14:50.090Z,71
2018-09-03T14:16:50.433Z,70
2018-09-03T14:18:49.872Z,70
2018-09-03T14:20:49.786Z,69
2018-09-03T14:22:49.849Z,68
2018-09-03T14:24:49.899Z,68
2018-09-03T14:26:50.060Z,69
2018-09-03T14:28:50.029Z,69
2018-09-03T14:30:50.001Z,69
2018-09-03T14:32:49.982Z,68
2018-09-03T14:34:50.300Z,68
2018-09-03T14:36:50.615Z,68
2018-09-03T14:38:50.589Z,68
2018-09-03T14:40:50.802Z,68
2018-09-03T14:42:49.800Z,68
2018-09-03T14:44:49.932Z,68
2018-09-03T14:46:50.208Z,68
2018-09-03T14:48:50.239Z,68
2018-09-03T14:50:50.221Z,68
2018-09-03T14:52:50.186Z,67
2018-09-03T14:54:50.164Z,67
2018-09-03T14:56:50.314Z,68
2018-09-03T14:58:50.362Z,68
2018-09-03T15:00:50.359Z,68
2018-09-03T15:02:50.421Z,68
2018-09-03T15:04:49.898Z,68
2018-09-03T15:06:50.119Z,68
2018-09-03T15:08:50.187Z,67
2018-09-03T15:10:50.181Z,68
2018-09-03T15:12:50.189Z,67
2018-09-03T15:14:50.523Z,67
2018-09-03T15:16:50.642Z,68
2018-09-03T15:18:50.554Z,67
2018-09-03T15:20:50.557Z,67
2018-09-03T15:22:50.565Z,67
2018-09-03T15:24:50.575Z,66
2018-09-03T15:26:50.646Z,66
2018-09-03T15:28:50.760Z,67
2018-09-03T15:30:50.682Z,65
2018-09-03T15:32:49.869Z,65
2018-09-03T15:34:50.287Z,65
2018-09-03T15:36:50.510Z,65
2018-09-03T15:38:50.455Z,65
2018-09-03T15:40:50.582Z,65
2018-09-03T15:42:50.674Z,66
2018-09-03T15:44:50.880Z,66
2018-09-03T15:46:50.077Z,66
2018-09-03T15:48:50.336Z,65
2018-09-03T15:50:50.370Z,65
2018-09-03T15:52:50.367Z,66
2018-09-03T15:54:50.398Z,65
2018-09-03T15:56:50.070Z,65
2018-09-03T15:58:50.034Z,65
2018-09-03T16:00:49.995Z,65
2018-09-03T16:02:50.095Z,65
2018-09-03T16:04:50.435Z,66
2018-09-03T16:06:50.628Z,65
2018-09-03T16:08:50.660Z,65
2018-09-03T16:10:50.703Z,65
2018-09-03T16:12:50.639Z,65
2018-09-03T16:14:50.631Z,65
2018-09-03T16:16:49.933Z,65
2018-09-03T16:18:50.173Z,65
2018-09-03T16:20:50.359Z,65
2018-09-03T16:22:50.346Z,64.2
2018-09-03T16:24:50.274Z,65.2
2018-09-03T16:26:50.396Z,65.5
2018-09-03T16:28:50.445Z,66.5
2018-09-03T16:30:50.462Z,69.6
2018-09-03T16:32:50.443Z,66.6
2018-09-03T16:34:49.806Z,67.0
2018-09-03T16:36:50.132Z,67.4
2018-09-03T16:38:50.678Z,67.2
2018-09-03T16:40:50.781Z,69.0
2018-09-03T16:42:50.771Z,69.1
2018-09-03T16:44:49.803Z,67.9
2018-09-03T16:46:50.007Z,68.9
2018-09-03T16:48:50.182Z,69.0
2018-09-03T16:50:50.164Z,69.5
2018-09-03T16:52:50.217Z,70.6
2018-09-03T16:54:50.223Z,70.6
2018-09-03T16:56:50.304Z,72.6
2018-09-03T16:58:50.372Z,72.5
2018-09-03T17:00:50.617Z,73.5
2018-09-03T17:02:50.633Z,73.5
2018-09-03T17:04:50.113Z,74.0
2018-09-03T17:06:50.286Z,75.4
2018-09-03T17:08:50.378Z,75.7
2018-09-03T17:10:50.325Z,74.7
2018-09-03T17:12:50.340Z,77.1
2018-09-03T17:14:50.375Z,77.6
2018-09-03T17:16:50.535Z,77.3
2018-09-03T17:18:50.539Z,77.0
2018-09-03T17:20:50.531Z,76.8
2018-09-03T17:22:50.516Z,76.6
2018-09-03T17:24:50.460Z,75.9
2018-09-03T17:26:50.684Z,76.3
2018-09-03T17:28:51.243Z,76.1
2018-09-03T17:30:50.390Z,76.6
2018-09-03T17:32:50.399Z,76.9
2018-09-03T17:34:49.799Z,77.2
2018-09-03T17:36:50.189Z,77.9
2018-09-03T17:38:50.206Z,78.4
2018-09-03T17:40:50.268Z,79.2
2018-09-03T17:42:50.233Z,79.3
2018-09-03T17:44:50.337Z,80.6
2018-09-03T17:46:50.411Z,80.6
2018-09-03T17:48:50.403Z,80.6
2018-09-03T17:50:50.437Z,80.7
2018-09-03T17:52:50.509Z,82.0
2018-09-03T17:54:50.545Z,80.7
2018-09-03T17:56:49.844Z,81.5
2018-09-03T17:58:49.860Z,81.7
2018-09-03T18:00:49.887Z,81.8
2018-09-03T18:02:49.921Z,81.4
2018-09-03T18:04:50.429Z,81.9
2018-09-03T18:06:50.560Z,82.5
2018-09-03T18:08:50.583Z,83.6
2018-09-03T18:10:50.642Z,82.6
2018-09-03T18:12:50.630Z,82.8
2018-09-03T18:14:50.650Z,82.9
2018-09-03T18:16:49.881Z,82.9
2018-09-03T18:18:49.833Z,83.2
2018-09-03T18:20:50.034Z,83.4
2018-09-03T18:22:50.032Z,83.7
2018-09-03T18:24:50.024Z,83.6
2018-09-03T18:26:50.206Z,84.9
2018-09-03T18:28:50.260Z,84.2
2018-09-03T18:30:50.299Z,84.0
2018-09-03T18:32:50.235Z,84.5
2018-09-03T18:34:50.520Z,84.4
2018-09-03T18:36:50.701Z,84.4
2018-09-03T18:38:50.771Z,85.2
2018-09-03T18:40:49.820Z,87.2
2018-09-03T18:42:49.869Z,86.6
2018-09-03T18:44:49.941Z,87.4
2018-09-03T18:46:50.085Z,87.7
2018-09-03T18:48:50.203Z,86.2
2018-09-03T18:50:50.322Z,86.2
2018-09-03T18:52:50.467Z,86.3
2018-09-03T18:54:50.464Z,86.7
2018-09-03T18:56:50.730Z,86.9
2018-09-03T18:58:49.784Z,87.1
2018-09-03T19:00:49.956Z,87.3
2018-09-03T19:02:49.985Z,87.9
2018-09-03T19:04:50.449Z,88.2
2018-09-03T19:06:50.529Z,88.6
2018-09-03T19:08:50.581Z,89.1
2018-09-03T19:10:50.563Z,89.3
2018-09-03T19:12:50.593Z,89.9
2018-09-03T19:14:50.543Z,90.1
2018-09-03T19:16:50.736Z,90.3
2018-09-03T19:18:49.783Z,90.6
2018-09-03T19:20:50.016Z,91.1
2018-09-03T19:22:50.117Z,91.1
2018-09-03T19:24:50.089Z,91.6
2018-09-03T19:26:50.372Z,91.7
2018-09-03T19:28:50.436Z,92.7
2018-09-03T19:30:50.435Z,92.8
2018-09-03T19:32:50.408Z,93.2
2018-09-03T19:34:49.771Z,94.0
2018-09-03T19:36:50.025Z,94.6
2018-09-03T19:38:50.001Z,94.5
2018-09-03T19:40:49.953Z,94.5
2018-09-03T19:42:50.031Z,94.7
2018-09-03T19:44:50.027Z,94.8
2018-09-03T19:46:50.264Z,96.1
2018-09-03T19:48:50.284Z,96.2
2018-09-03T19:50:50.296Z,96.5
2018-09-03T19:52:50.299Z,96.8
2018-09-03T19:54:50.341Z,96.3
2018-09-03T19:56:50.501Z,96.3
2018-09-03T19:58:50.708Z,96.4
2018-09-03T20:00:50.662Z,96.4
2018-09-03T20:02:50.712Z,96.5
2018-09-03T20:04:50.344Z,96.6
2018-09-03T20:06:50.494Z,96.6
2018-09-03T20:08:50.484Z,96.3
2018-09-03T20:10:50.527Z,96.2
2018-09-03T20:12:50.481Z,96.2
2018-09-03T20:14:50.447Z,96.3
2018-09-03T20:16:50.632Z,96.3
2018-09-03T20:18:50.649Z,96.4
2018-09-03T20:20:50.641Z,96.7
2018-09-03T20:22:50.830Z,96.8
2018-09-03T20:24:49.892Z,97.2
2018-09-03T20:26:50.177Z,97.2
2018-09-03T20:28:50.146Z,96.8
2018-09-03T20:30:50.122Z,96.8
2018-09-03T20:32:50.165Z,96.7
2018-09-03T20:34:50.439Z,96.7
2018-09-03T20:36:49.882Z,96.8
2018-09-03T20:38:50.118Z,96.9
2018-09-03T20:40:50.125Z,97.3
2018-09-03T20:42:50.470Z,97.2
2018-09-03T20:44:51.257Z,97.1
2018-09-03T20:46:50.504Z,97.1
2018-09-03T20:48:50.453Z,97.4
2018-09-03T20:50:50.496Z,97.9
2018-09-03T20:52:50.438Z,97.9
2018-09-03T20:54:50.400Z,97.6
2018-09-03T20:56:50.610Z,97.5
2018-09-03T20:58:50.552Z,97.6
2018-09-03T21:00:50.624Z,98.0
2018-09-03T21:02:50.663Z,98.6
2018-09-03T21:04:49.941Z,98.5
2018-09-03T21:06:50.231Z,98.5
2018-09-03T21:08:50.238Z,98.1
2018-09-03T21:10:50.209Z,98.1
2018-09-03T21:12:50.238Z,98.1
2018-09-03T21:14:50.264Z,98.1
2018-09-03T21:16:50.440Z,98.4
2018-09-03T21:18:50.445Z,98.3
2018-09-03T21:20:50.442Z,98.4
2018-09-03T21:22:50.516Z,98.5
2018-09-03T21:24:50.494Z,98.6
2018-09-03T21:26:50.659Z,98.8
2018-09-03T21:28:50.644Z,98.6
2018-09-03T21:30:50.660Z,98.6
2018-09-03T21:32:50.630Z,98.8
2018-09-03T21:34:49.972Z,98.8
2018-09-03T21:36:50.087Z,98.7
2018-09-03T21:38:50.100Z,98.9
2018-09-03T21:40:50.096Z,99.2
2018-09-03T21:42:50.082Z,99.2
2018-09-03T21:44:50.038Z,99.5
2018-09-03T21:46:50.883Z,99.5
2018-09-03T21:48:50.015Z,99.8
2018-09-03T21:50:50.149Z,99.7
2018-09-03T21:52:50.144Z,99.7
2018-09-03T21:54:50.175Z,99.5
2018-09-03T21:56:50.352Z,99.5
2018-09-03T21:58:50.383Z,99.5
2018-09-03T22:00:50.375Z,99.6
2018-09-03T22:02:50.767Z,99.8
2018-09-03T22:04:50.085Z,99.9
2018-09-03T22:06:50.213Z,99.9
2018-09-03T22:08:50.132Z,100.0
2018-09-03T22:10:50.107Z,100.0
2018-09-03T22:12:50.120Z,100.0
2018-09-03T22:14:50.122Z,100.0
2018-09-03T22:16:50.293Z,100.0
2018-09-03T22:18:50.280Z,100.0
2018-09-03T22:20:50.317Z,100.0
2018-09-03T22:22:50.423Z,100.0
2018-09-03T22:24:50.394Z,100.0
2018-09-03T22:26:50.572Z,100.0
2018-09-03T22:28:50.665Z,100.0
2018-09-03T22:30:49.819Z,100.0
2018-09-03T22:32:50.124Z,100.0
2018-09-03T22:34:50.521Z,100.0
2018-09-03T22:36:50.695Z,100.0
2018-09-03T22:38:50.570Z,100.0
2018-09-03T22:40:50.658Z,100.0
2018-09-03T22:42:50.640Z,100.0
2018-09-03T22:44:50.558Z,100.0
2018-09-03T22:46:49.878Z,100.0
2018-09-03T22:48:49.901Z,100.0
2018-09-03T22:50:50.130Z,100.0
2018-09-03T22:52:50.143Z,100.0
2018-09-03T22:54:50.169Z,100.0
2018-09-03T22:56:50.332Z,100.0
2018-09-03T22:58:50.331Z,100.0
2018-09-03T23:00:50.299Z,100.0
2018-09-03T23:02:50.357Z,100.0
2018-09-03T23:04:50.648Z,100.0
2018-09-03T23:06:50.026Z,100.0
2018-09-03T23:08:49.982Z,100.0
2018-09-03T23:10:49.997Z,100.0
2018-09-03T23:12:49.993Z,100.0
2018-09-03T23:14:50.044Z,100.0
2018-09-03T23:16:50.131Z,100.0
2018-09-03T23:18:50.190Z,100.0
2018-09-03T23:20:50.294Z,100.0
2018-09-03T23:22:50.356Z,100.0
2018-09-03T23:24:50.346Z,100.0
2018-09-03T23:26:50.500Z,100.0
2018-09-03T23:28:50.477Z,100.0
2018-09-03T23:30:50.459Z,100.0
2018-09-03T23:32:50.454Z,100.0
2018-09-03T23:34:49.798Z,100.0
2018-09-03T23:36:50.070Z,100.0
2018-09-03T23:38:50.188Z,100.0
2018-09-03T23:40:50.222Z,100.0
2018-09-03T23:42:50.213Z,100.0
2018-09-03T23:44:50.203Z,100.0
2018-09-03T23:46:50.472Z,100.0
2018-09-03T23:48:50.616Z,100.0
2018-09-03T23:50:50.564Z,100.0
2018-09-03T23:52:50.623Z,100.0
2018-09-03T23:54:50.550Z,100.0
2018-09-03T23:56:50.755Z,100.0
2018-09-03T23:58:50.766Z,100.0
